sensor_id;sensor_type;location;lat;lon;timestamp;P1;durP1;ratioP1;P2;durP2;ratioP2
51298;SDS011;37382;45.192;9.790;2022-12-07T00:01:42;23.08;;;13.10;;
51298;SDS011;37382;45.192;9.790;2022-12-07T00:04:12;36.53;;;15.27;;
51298;SDS011;37382;45.192;9.790;2022-12-07T00:06:42;37.40;;;16.23;;
51298;SDS011;37382;45.192;9.790;2022-12-07T00:09:13;42.65;;;17.17;;
51298;SDS011;37382;45.192;9.790;2022-12-07T00:11:44;36.97;;;16.58;;
51298;SDS011;37382;45.192;9.790;2022-12-07T00:14:15;32.90;;;15.57;;
51298;SDS011;37382;45.192;9.790;2022-12-07T00:16:45;33.20;;;15.43;;
51298;SDS011;37382;45.192;9.790;2022-12-07T00:19:15;27.80;;;14.98;;
51298;SDS011;37382;45.192;9.790;2022-12-07T00:21:42;31.15;;;16.52;;
51298;SDS011;37382;45.192;9.790;2022-12-07T00:24:11;31.77;;;15.93;;
51298;SDS011;37382;45.192;9.790;2022-12-07T00:26:40;36.60;;;15.93;;
51298;SDS011;37382;45.192;9.790;2022-12-07T00:29:13;51.92;;;15.20;;
51298;SDS011;37382;45.192;9.790;2022-12-07T00:31:44;32.90;;;15.18;;
51298;SDS011;37382;45.192;9.790;2022-12-07T00:34:13;34.50;;;14.55;;
51298;SDS011;37382;45.192;9.790;2022-12-07T00:36:43;33.67;;;14.88;;
51298;SDS011;37382;45.192;9.790;2022-12-07T00:39:11;28.92;;;13.20;;
51298;SDS011;37382;45.192;9.790;2022-12-07T00:41:38;39.80;;;15.23;;
51298;SDS011;37382;45.192;9.790;2022-12-07T00:44:06;28.95;;;15.25;;
51298;SDS011;37382;45.192;9.790;2022-12-07T00:46:35;33.85;;;16.10;;
51298;SDS011;37382;45.192;9.790;2022-12-07T00:49:05;28.52;;;15.35;;
51298;SDS011;37382;45.192;9.790;2022-12-07T00:51:33;21.73;;;15.05;;
51298;SDS011;37382;45.192;9.790;2022-12-07T00:54:00;75.45;;;18.25;;
51298;SDS011;37382;45.192;9.790;2022-12-07T00:56:29;42.55;;;17.77;;
51298;SDS011;37382;45.192;9.790;2022-12-07T00:59:00;39.70;;;17.15;;
51298;SDS011;37382;45.192;9.790;2022-12-07T01:01:30;47.95;;;16.95;;
51298;SDS011;37382;45.192;9.790;2022-12-07T01:03:59;66.25;;;17.73;;
51298;SDS011;37382;45.192;9.790;2022-12-07T01:06:30;45.22;;;18.77;;
51298;SDS011;37382;45.192;9.790;2022-12-07T01:08:58;34.60;;;17.52;;
51298;SDS011;37382;45.192;9.790;2022-12-07T01:11:27;29.85;;;17.30;;
51298;SDS011;37382;45.192;9.790;2022-12-07T01:13:57;30.95;;;18.08;;
51298;SDS011;37382;45.192;9.790;2022-12-07T01:16:26;31.05;;;18.17;;
51298;SDS011;37382;45.192;9.790;2022-12-07T01:18:56;63.72;;;18.90;;
51298;SDS011;37382;45.192;9.790;2022-12-07T01:21:26;44.95;;;19.42;;
51298;SDS011;37382;45.192;9.790;2022-12-07T01:23:57;38.42;;;19.20;;
51298;SDS011;37382;45.192;9.790;2022-12-07T01:26:25;66.53;;;18.98;;
51298;SDS011;37382;45.192;9.790;2022-12-07T01:28:53;50.63;;;19.02;;
51298;SDS011;37382;45.192;9.790;2022-12-07T01:31:23;38.72;;;17.83;;
51298;SDS011;37382;45.192;9.790;2022-12-07T01:33:53;33.97;;;17.58;;
51298;SDS011;37382;45.192;9.790;2022-12-07T01:36:23;34.10;;;16.70;;
51298;SDS011;37382;45.192;9.790;2022-12-07T01:38:54;25.58;;;17.63;;
51298;SDS011;37382;45.192;9.790;2022-12-07T01:41:25;65.25;;;19.33;;
51298;SDS011;37382;45.192;9.790;2022-12-07T01:47:01;40.40;;;20.08;;
51298;SDS011;37382;45.192;9.790;2022-12-07T01:49:41;53.77;;;19.53;;
51298;SDS011;37382;45.192;9.790;2022-12-07T01:52:16;51.10;;;19.52;;
51298;SDS011;37382;45.192;9.790;2022-12-07T01:54:51;41.50;;;19.63;;
51298;SDS011;37382;45.192;9.790;2022-12-07T01:57:21;60.08;;;20.83;;
51298;SDS011;37382;45.192;9.790;2022-12-07T01:59:50;50.60;;;20.70;;
51298;SDS011;37382;45.192;9.790;2022-12-07T02:02:27;50.17;;;20.42;;
51298;SDS011;37382;45.192;9.790;2022-12-07T02:04:59;51.88;;;20.90;;
51298;SDS011;37382;45.192;9.790;2022-12-07T02:07:30;45.13;;;19.65;;
51298;SDS011;37382;45.192;9.790;2022-12-07T02:12:50;40.33;;;18.65;;
51298;SDS011;37382;45.192;9.790;2022-12-07T02:15:22;88.55;;;20.27;;
51298;SDS011;37382;45.192;9.790;2022-12-07T02:21:07;42.58;;;17.13;;
51298;SDS011;37382;45.192;9.790;2022-12-07T02:26:32;55.90;;;19.25;;
51298;SDS011;37382;45.192;9.790;2022-12-07T02:32:15;50.40;;;16.55;;
51298;SDS011;37382;45.192;9.790;2022-12-07T02:34:58;38.30;;;17.02;;
51298;SDS011;37382;45.192;9.790;2022-12-07T02:40:29;56.65;;;16.67;;
51298;SDS011;37382;45.192;9.790;2022-12-07T02:43:06;38.33;;;16.98;;
51298;SDS011;37382;45.192;9.790;2022-12-07T02:45:38;37.97;;;16.52;;
51298;SDS011;37382;45.192;9.790;2022-12-07T02:48:08;42.97;;;16.13;;
51298;SDS011;37382;45.192;9.790;2022-12-07T02:50:44;29.10;;;16.52;;
51298;SDS011;37382;45.192;9.790;2022-12-07T02:58:54;40.25;;;14.25;;
51298;SDS011;37382;45.192;9.790;2022-12-07T03:04:20;22.20;;;13.68;;
51298;SDS011;37382;45.192;9.790;2022-12-07T03:07:18;28.83;;;16.05;;
51298;SDS011;37382;45.192;9.790;2022-12-07T03:12:38;19.02;;;15.15;;
51298;SDS011;37382;45.192;9.790;2022-12-07T03:15:31;22.88;;;15.85;;
51298;SDS011;37382;45.192;9.790;2022-12-07T03:18:20;21.50;;;14.15;;
51298;SDS011;37382;45.192;9.790;2022-12-07T03:20:52;20.70;;;13.55;;
51298;SDS011;37382;45.192;9.790;2022-12-07T03:23:22;24.98;;;13.38;;
51298;SDS011;37382;45.192;9.790;2022-12-07T03:25:54;26.98;;;13.05;;
51298;SDS011;37382;45.192;9.790;2022-12-07T03:28:29;20.67;;;12.40;;
51298;SDS011;37382;45.192;9.790;2022-12-07T03:31:02;17.55;;;12.60;;
51298;SDS011;37382;45.192;9.790;2022-12-07T03:33:39;22.45;;;12.57;;
51298;SDS011;37382;45.192;9.790;2022-12-07T03:36:21;21.65;;;12.40;;
51298;SDS011;37382;45.192;9.790;2022-12-07T03:39:02;20.02;;;13.02;;
51298;SDS011;37382;45.192;9.790;2022-12-07T03:41:39;27.85;;;14.18;;
51298;SDS011;37382;45.192;9.790;2022-12-07T03:44:11;32.90;;;14.63;;
51298;SDS011;37382;45.192;9.790;2022-12-07T03:49:45;39.38;;;17.70;;
51298;SDS011;37382;45.192;9.790;2022-12-07T03:52:24;36.17;;;19.05;;
51298;SDS011;37382;45.192;9.790;2022-12-07T03:57:35;37.60;;;18.25;;
51298;SDS011;37382;45.192;9.790;2022-12-07T04:00:05;37.88;;;17.42;;
51298;SDS011;37382;45.192;9.790;2022-12-07T04:02:41;33.60;;;17.33;;
51298;SDS011;37382;45.192;9.790;2022-12-07T04:05:10;48.70;;;18.67;;
51298;SDS011;37382;45.192;9.790;2022-12-07T04:07:38;47.03;;;20.98;;
51298;SDS011;37382;45.192;9.790;2022-12-07T04:10:05;49.15;;;20.10;;
51298;SDS011;37382;45.192;9.790;2022-12-07T04:12:33;47.78;;;20.90;;
51298;SDS011;37382;45.192;9.790;2022-12-07T04:15:01;45.22;;;23.27;;
51298;SDS011;37382;45.192;9.790;2022-12-07T04:17:28;55.38;;;23.10;;
51298;SDS011;37382;45.192;9.790;2022-12-07T04:19:56;46.45;;;23.90;;
51298;SDS011;37382;45.192;9.790;2022-12-07T04:22:24;56.15;;;23.27;;
51298;SDS011;37382;45.192;9.790;2022-12-07T04:24:51;40.25;;;21.50;;
51298;SDS011;37382;45.192;9.790;2022-12-07T04:27:18;48.95;;;20.00;;
51298;SDS011;37382;45.192;9.790;2022-12-07T04:29:45;38.83;;;20.55;;
51298;SDS011;37382;45.192;9.790;2022-12-07T04:32:13;40.17;;;20.88;;
51298;SDS011;37382;45.192;9.790;2022-12-07T04:34:40;36.42;;;19.17;;
51298;SDS011;37382;45.192;9.790;2022-12-07T04:37:07;47.00;;;20.70;;
51298;SDS011;37382;45.192;9.790;2022-12-07T04:39:35;34.97;;;19.05;;
51298;SDS011;37382;45.192;9.790;2022-12-07T04:42:03;37.35;;;17.65;;
51298;SDS011;37382;45.192;9.790;2022-12-07T04:44:31;32.05;;;19.42;;
51298;SDS011;37382;45.192;9.790;2022-12-07T04:46:58;29.25;;;18.33;;
51298;SDS011;37382;45.192;9.790;2022-12-07T04:49:26;37.22;;;19.48;;
51298;SDS011;37382;45.192;9.790;2022-12-07T04:51:53;33.45;;;18.83;;
51298;SDS011;37382;45.192;9.790;2022-12-07T04:54:21;29.73;;;18.60;;
51298;SDS011;37382;45.192;9.790;2022-12-07T04:56:49;27.98;;;18.75;;
51298;SDS011;37382;45.192;9.790;2022-12-07T04:59:17;33.65;;;19.45;;
51298;SDS011;37382;45.192;9.790;2022-12-07T05:01:45;48.03;;;19.45;;
51298;SDS011;37382;45.192;9.790;2022-12-07T05:04:13;32.78;;;19.83;;
51298;SDS011;37382;45.192;9.790;2022-12-07T05:06:40;34.17;;;19.52;;
51298;SDS011;37382;45.192;9.790;2022-12-07T05:09:08;35.70;;;20.25;;
51298;SDS011;37382;45.192;9.790;2022-12-07T05:11:35;37.05;;;20.30;;
51298;SDS011;37382;45.192;9.790;2022-12-07T05:16:41;29.17;;;20.02;;
51298;SDS011;37382;45.192;9.790;2022-12-07T05:19:09;34.75;;;19.98;;
51298;SDS011;37382;45.192;9.790;2022-12-07T05:21:38;38.33;;;19.60;;
51298;SDS011;37382;45.192;9.790;2022-12-07T05:24:06;37.40;;;19.48;;
51298;SDS011;37382;45.192;9.790;2022-12-07T05:26:34;31.60;;;18.95;;
51298;SDS011;37382;45.192;9.790;2022-12-07T05:29:02;35.15;;;18.52;;
51298;SDS011;37382;45.192;9.790;2022-12-07T05:31:30;31.92;;;20.33;;
51298;SDS011;37382;45.192;9.790;2022-12-07T05:33:57;33.78;;;19.30;;
51298;SDS011;37382;45.192;9.790;2022-12-07T05:36:25;41.15;;;19.48;;
51298;SDS011;37382;45.192;9.790;2022-12-07T05:38:52;35.08;;;20.50;;
51298;SDS011;37382;45.192;9.790;2022-12-07T05:41:19;38.72;;;21.55;;
51298;SDS011;37382;45.192;9.790;2022-12-07T05:44:05;54.97;;;20.83;;
51298;SDS011;37382;45.192;9.790;2022-12-07T05:46:33;49.45;;;24.40;;
51298;SDS011;37382;45.192;9.790;2022-12-07T05:49:01;44.28;;;24.98;;
51298;SDS011;37382;45.192;9.790;2022-12-07T05:51:29;44.88;;;25.15;;
51298;SDS011;37382;45.192;9.790;2022-12-07T05:53:57;51.45;;;23.30;;
51298;SDS011;37382;45.192;9.790;2022-12-07T05:56:25;43.58;;;23.92;;
51298;SDS011;37382;45.192;9.790;2022-12-07T05:58:53;49.65;;;22.75;;
51298;SDS011;37382;45.192;9.790;2022-12-07T06:01:39;51.30;;;24.35;;
51298;SDS011;37382;45.192;9.790;2022-12-07T06:04:07;51.65;;;23.17;;
51298;SDS011;37382;45.192;9.790;2022-12-07T06:06:35;48.85;;;24.38;;
51298;SDS011;37382;45.192;9.790;2022-12-07T06:09:03;43.80;;;25.85;;
51298;SDS011;37382;45.192;9.790;2022-12-07T06:11:31;44.90;;;23.35;;
51298;SDS011;37382;45.192;9.790;2022-12-07T06:14:17;50.15;;;23.95;;
51298;SDS011;37382;45.192;9.790;2022-12-07T06:16:45;46.95;;;23.95;;
51298;SDS011;37382;45.192;9.790;2022-12-07T06:19:12;42.60;;;23.60;;
51298;SDS011;37382;45.192;9.790;2022-12-07T06:21:42;49.47;;;23.85;;
51298;SDS011;37382;45.192;9.790;2022-12-07T06:24:10;42.53;;;24.45;;
51298;SDS011;37382;45.192;9.790;2022-12-07T06:26:39;38.88;;;25.00;;
51298;SDS011;37382;45.192;9.790;2022-12-07T06:29:07;38.25;;;23.70;;
51298;SDS011;37382;45.192;9.790;2022-12-07T06:31:35;50.63;;;25.67;;
51298;SDS011;37382;45.192;9.790;2022-12-07T06:34:06;52.53;;;25.50;;
51298;SDS011;37382;45.192;9.790;2022-12-07T06:36:37;57.35;;;27.77;;
51298;SDS011;37382;45.192;9.790;2022-12-07T06:39:05;62.97;;;28.30;;
51298;SDS011;37382;45.192;9.790;2022-12-07T06:41:35;64.72;;;29.02;;
51298;SDS011;37382;45.192;9.790;2022-12-07T06:44:06;68.07;;;29.02;;
51298;SDS011;37382;45.192;9.790;2022-12-07T06:46:33;61.55;;;27.58;;
51298;SDS011;37382;45.192;9.790;2022-12-07T06:49:03;60.17;;;27.33;;
51298;SDS011;37382;45.192;9.790;2022-12-07T06:51:31;51.60;;;27.10;;
51298;SDS011;37382;45.192;9.790;2022-12-07T06:54:03;48.35;;;28.25;;
51298;SDS011;37382;45.192;9.790;2022-12-07T06:56:30;58.42;;;27.65;;
51298;SDS011;37382;45.192;9.790;2022-12-07T06:58:58;61.33;;;27.25;;
51298;SDS011;37382;45.192;9.790;2022-12-07T07:01:26;51.97;;;25.83;;
51298;SDS011;37382;45.192;9.790;2022-12-07T07:03:53;68.38;;;27.77;;
51298;SDS011;37382;45.192;9.790;2022-12-07T07:06:21;63.35;;;27.63;;
51298;SDS011;37382;45.192;9.790;2022-12-07T07:08:48;48.30;;;28.70;;
51298;SDS011;37382;45.192;9.790;2022-12-07T07:11:16;55.65;;;27.90;;
51298;SDS011;37382;45.192;9.790;2022-12-07T07:13:44;58.90;;;27.23;;
51298;SDS011;37382;45.192;9.790;2022-12-07T07:16:12;66.80;;;30.42;;
51298;SDS011;37382;45.192;9.790;2022-12-07T07:18:40;76.18;;;28.13;;
51298;SDS011;37382;45.192;9.790;2022-12-07T07:21:10;52.50;;;29.92;;
51298;SDS011;37382;45.192;9.790;2022-12-07T07:23:38;64.05;;;30.25;;
51298;SDS011;37382;45.192;9.790;2022-12-07T07:26:05;51.05;;;31.55;;
51298;SDS011;37382;45.192;9.790;2022-12-07T07:28:33;52.13;;;31.13;;
51298;SDS011;37382;45.192;9.790;2022-12-07T07:31:00;52.85;;;30.83;;
51298;SDS011;37382;45.192;9.790;2022-12-07T07:33:28;50.67;;;31.67;;
51298;SDS011;37382;45.192;9.790;2022-12-07T07:35:55;52.58;;;32.13;;
51298;SDS011;37382;45.192;9.790;2022-12-07T07:38:23;62.10;;;34.78;;
51298;SDS011;37382;45.192;9.790;2022-12-07T07:40:50;60.83;;;35.80;;
51298;SDS011;37382;45.192;9.790;2022-12-07T07:43:18;57.55;;;34.78;;
51298;SDS011;37382;45.192;9.790;2022-12-07T07:45:46;54.90;;;32.35;;
51298;SDS011;37382;45.192;9.790;2022-12-07T07:48:14;58.08;;;34.92;;
51298;SDS011;37382;45.192;9.790;2022-12-07T07:50:41;53.50;;;32.03;;
51298;SDS011;37382;45.192;9.790;2022-12-07T07:53:08;57.50;;;34.40;;
51298;SDS011;37382;45.192;9.790;2022-12-07T07:55:36;55.60;;;31.90;;
51298;SDS011;37382;45.192;9.790;2022-12-07T07:58:03;64.78;;;34.80;;
51298;SDS011;37382;45.192;9.790;2022-12-07T08:00:31;53.13;;;28.85;;
51298;SDS011;37382;45.192;9.790;2022-12-07T08:02:59;49.35;;;28.90;;
51298;SDS011;37382;45.192;9.790;2022-12-07T08:05:26;50.63;;;29.58;;
51298;SDS011;37382;45.192;9.790;2022-12-07T08:07:54;51.40;;;30.20;;
51298;SDS011;37382;45.192;9.790;2022-12-07T08:10:21;55.40;;;32.30;;
51298;SDS011;37382;45.192;9.790;2022-12-07T08:12:49;51.33;;;30.63;;
51298;SDS011;37382;45.192;9.790;2022-12-07T08:15:35;48.88;;;29.38;;
51298;SDS011;37382;45.192;9.790;2022-12-07T08:18:05;57.28;;;30.42;;
51298;SDS011;37382;45.192;9.790;2022-12-07T08:20:33;56.30;;;31.02;;
51298;SDS011;37382;45.192;9.790;2022-12-07T08:23:02;49.00;;;30.45;;
51298;SDS011;37382;45.192;9.790;2022-12-07T08:25:31;50.83;;;29.90;;
51298;SDS011;37382;45.192;9.790;2022-12-07T08:27:59;52.13;;;28.95;;
51298;SDS011;37382;45.192;9.790;2022-12-07T08:30:28;52.58;;;30.77;;
51298;SDS011;37382;45.192;9.790;2022-12-07T08:32:56;47.50;;;27.13;;
51298;SDS011;37382;45.192;9.790;2022-12-07T08:35:24;51.60;;;30.55;;
51298;SDS011;37382;45.192;9.790;2022-12-07T08:37:53;51.70;;;28.48;;
51298;SDS011;37382;45.192;9.790;2022-12-07T08:40:20;53.10;;;31.23;;
51298;SDS011;37382;45.192;9.790;2022-12-07T08:42:49;63.83;;;30.52;;
51298;SDS011;37382;45.192;9.790;2022-12-07T08:45:17;57.72;;;29.33;;
51298;SDS011;37382;45.192;9.790;2022-12-07T08:48:03;53.65;;;30.52;;
51298;SDS011;37382;45.192;9.790;2022-12-07T08:50:34;54.80;;;31.67;;
51298;SDS011;37382;45.192;9.790;2022-12-07T08:53:04;55.67;;;31.77;;
51298;SDS011;37382;45.192;9.790;2022-12-07T08:55:33;57.22;;;30.80;;
51298;SDS011;37382;45.192;9.790;2022-12-07T08:58:01;52.97;;;29.42;;
51298;SDS011;37382;45.192;9.790;2022-12-07T09:00:29;52.95;;;30.33;;
51298;SDS011;37382;45.192;9.790;2022-12-07T09:02:57;58.08;;;32.40;;
51298;SDS011;37382;45.192;9.790;2022-12-07T09:05:25;64.07;;;32.80;;
51298;SDS011;37382;45.192;9.790;2022-12-07T09:07:54;61.80;;;31.75;;
51298;SDS011;37382;45.192;9.790;2022-12-07T09:10:25;53.28;;;30.30;;
51298;SDS011;37382;45.192;9.790;2022-12-07T09:12:53;62.03;;;33.95;;
51298;SDS011;37382;45.192;9.790;2022-12-07T09:15:20;62.63;;;32.38;;
51298;SDS011;37382;45.192;9.790;2022-12-07T09:17:48;62.75;;;32.05;;
51298;SDS011;37382;45.192;9.790;2022-12-07T09:20:15;58.58;;;31.85;;
51298;SDS011;37382;45.192;9.790;2022-12-07T09:22:43;55.03;;;32.05;;
51298;SDS011;37382;45.192;9.790;2022-12-07T09:25:11;59.00;;;32.22;;
51298;SDS011;37382;45.192;9.790;2022-12-07T09:27:39;57.70;;;31.55;;
51298;SDS011;37382;45.192;9.790;2022-12-07T09:30:07;55.53;;;31.23;;
51298;SDS011;37382;45.192;9.790;2022-12-07T09:32:35;57.72;;;30.90;;
51298;SDS011;37382;45.192;9.790;2022-12-07T09:35:03;63.33;;;31.83;;
51298;SDS011;37382;45.192;9.790;2022-12-07T09:37:31;63.03;;;32.17;;
51298;SDS011;37382;45.192;9.790;2022-12-07T09:40:02;56.67;;;29.92;;
51298;SDS011;37382;45.192;9.790;2022-12-07T09:42:35;64.20;;;31.30;;
51298;SDS011;37382;45.192;9.790;2022-12-07T09:45:07;63.08;;;32.17;;
51298;SDS011;37382;45.192;9.790;2022-12-07T09:47:41;62.05;;;33.03;;
51298;SDS011;37382;45.192;9.790;2022-12-07T09:50:16;71.95;;;33.65;;
51298;SDS011;37382;45.192;9.790;2022-12-07T09:52:47;71.25;;;37.15;;
51298;SDS011;37382;45.192;9.790;2022-12-07T09:55:19;68.03;;;34.28;;
51298;SDS011;37382;45.192;9.790;2022-12-07T09:57:51;68.47;;;34.28;;
51298;SDS011;37382;45.192;9.790;2022-12-07T10:00:20;69.45;;;33.78;;
51298;SDS011;37382;45.192;9.790;2022-12-07T10:02:55;71.97;;;33.17;;
51298;SDS011;37382;45.192;9.790;2022-12-07T10:05:26;64.70;;;33.83;;
51298;SDS011;37382;45.192;9.790;2022-12-07T10:07:58;70.20;;;35.17;;
51298;SDS011;37382;45.192;9.790;2022-12-07T10:10:26;70.63;;;37.40;;
51298;SDS011;37382;45.192;9.790;2022-12-07T10:13:06;76.95;;;36.42;;
51298;SDS011;37382;45.192;9.790;2022-12-07T10:15:49;68.97;;;34.17;;
51298;SDS011;37382;45.192;9.790;2022-12-07T10:18:18;70.30;;;36.28;;
51298;SDS011;37382;45.192;9.790;2022-12-07T10:23:37;76.60;;;35.83;;
51298;SDS011;37382;45.192;9.790;2022-12-07T10:26:20;75.75;;;35.30;;
51298;SDS011;37382;45.192;9.790;2022-12-07T10:29:24;67.18;;;34.50;;
51298;SDS011;37382;45.192;9.790;2022-12-07T10:31:57;75.82;;;36.83;;
51298;SDS011;37382;45.192;9.790;2022-12-07T10:34:32;72.03;;;36.35;;
51298;SDS011;37382;45.192;9.790;2022-12-07T10:39:43;71.22;;;33.25;;
51298;SDS011;37382;45.192;9.790;2022-12-07T10:44:49;75.70;;;34.88;;
51298;SDS011;37382;45.192;9.790;2022-12-07T10:56:11;85.78;;;40.33;;
51298;SDS011;37382;45.192;9.790;2022-12-07T11:08:12;73.43;;;37.30;;
51298;SDS011;37382;45.192;9.790;2022-12-07T11:10:44;81.43;;;39.92;;
51298;SDS011;37382;45.192;9.790;2022-12-07T11:16:10;79.57;;;39.08;;
51298;SDS011;37382;45.192;9.790;2022-12-07T11:21:58;82.75;;;39.42;;
51298;SDS011;37382;45.192;9.790;2022-12-07T11:30:46;69.93;;;35.15;;
51298;SDS011;37382;45.192;9.790;2022-12-07T11:33:22;69.93;;;35.30;;
51298;SDS011;37382;45.192;9.790;2022-12-07T11:38:41;73.13;;;34.20;;
51298;SDS011;37382;45.192;9.790;2022-12-07T11:41:12;65.53;;;34.40;;
51298;SDS011;37382;45.192;9.790;2022-12-07T11:46:19;74.75;;;34.95;;
51298;SDS011;37382;45.192;9.790;2022-12-07T11:49:01;77.88;;;36.53;;
51298;SDS011;37382;45.192;9.790;2022-12-07T11:51:51;72.57;;;36.90;;
51298;SDS011;37382;45.192;9.790;2022-12-07T11:54:40;85.57;;;36.22;;
51298;SDS011;37382;45.192;9.790;2022-12-07T11:57:13;69.82;;;36.22;;
51298;SDS011;37382;45.192;9.790;2022-12-07T11:59:52;75.10;;;36.22;;
51298;SDS011;37382;45.192;9.790;2022-12-07T12:02:50;71.70;;;34.47;;
51298;SDS011;37382;45.192;9.790;2022-12-07T12:05:24;75.22;;;35.92;;
51298;SDS011;37382;45.192;9.790;2022-12-07T12:08:01;74.30;;;36.25;;
51298;SDS011;37382;45.192;9.790;2022-12-07T12:11:47;81.85;;;36.55;;
51298;SDS011;37382;45.192;9.790;2022-12-07T12:22:37;68.47;;;35.78;;
51298;SDS011;37382;45.192;9.790;2022-12-07T12:25:21;70.57;;;35.05;;
51298;SDS011;37382;45.192;9.790;2022-12-07T12:27:53;71.28;;;36.45;;
51298;SDS011;37382;45.192;9.790;2022-12-07T12:33:02;66.10;;;34.88;;
51298;SDS011;37382;45.192;9.790;2022-12-07T12:35:36;72.43;;;36.13;;
51298;SDS011;37382;45.192;9.790;2022-12-07T12:40:47;73.25;;;36.40;;
51298;SDS011;37382;45.192;9.790;2022-12-07T12:51:44;77.70;;;36.80;;
51298;SDS011;37382;45.192;9.790;2022-12-07T12:59:41;76.43;;;37.25;;
51298;SDS011;37382;45.192;9.790;2022-12-07T13:05:02;76.50;;;38.47;;
51298;SDS011;37382;45.192;9.790;2022-12-07T13:07:48;70.93;;;36.45;;
51298;SDS011;37382;45.192;9.790;2022-12-07T13:15:39;78.72;;;37.70;;
51298;SDS011;37382;45.192;9.790;2022-12-07T13:28:49;86.65;;;42.47;;
51298;SDS011;37382;45.192;9.790;2022-12-07T13:34:03;79.03;;;39.22;;
51298;SDS011;37382;45.192;9.790;2022-12-07T13:36:39;80.57;;;41.28;;
51298;SDS011;37382;45.192;9.790;2022-12-07T13:39:11;78.78;;;39.42;;
51298;SDS011;37382;45.192;9.790;2022-12-07T13:41:48;78.07;;;38.78;;
51298;SDS011;37382;45.192;9.790;2022-12-07T13:44:21;79.30;;;39.58;;
51298;SDS011;37382;45.192;9.790;2022-12-07T13:49:55;89.45;;;40.15;;
51298;SDS011;37382;45.192;9.790;2022-12-07T13:52:24;81.20;;;43.15;;
51298;SDS011;37382;45.192;9.790;2022-12-07T13:54:57;95.05;;;42.55;;
51298;SDS011;37382;45.192;9.790;2022-12-07T13:57:30;84.93;;;40.30;;
51298;SDS011;37382;45.192;9.790;2022-12-07T14:00:03;78.43;;;38.00;;
51298;SDS011;37382;45.192;9.790;2022-12-07T14:02:33;82.65;;;39.30;;
51298;SDS011;37382;45.192;9.790;2022-12-07T14:05:24;75.38;;;40.00;;
51298;SDS011;37382;45.192;9.790;2022-12-07T14:07:54;84.93;;;41.70;;
51298;SDS011;37382;45.192;9.790;2022-12-07T14:10:33;79.13;;;38.72;;
51298;SDS011;37382;45.192;9.790;2022-12-07T14:16:02;74.63;;;37.50;;
51298;SDS011;37382;45.192;9.790;2022-12-07T14:18:39;81.65;;;40.25;;
51298;SDS011;37382;45.192;9.790;2022-12-07T14:23:38;98.68;;;51.33;;
51298;SDS011;37382;45.192;9.790;2022-12-07T14:28:47;93.22;;;43.55;;
51298;SDS011;37382;45.192;9.790;2022-12-07T14:31:15;87.35;;;42.72;;
51298;SDS011;37382;45.192;9.790;2022-12-07T14:33:58;97.10;;;45.67;;
51298;SDS011;37382;45.192;9.790;2022-12-07T14:36:26;95.88;;;45.55;;
51298;SDS011;37382;45.192;9.790;2022-12-07T14:38:53;88.95;;;41.85;;
51298;SDS011;37382;45.192;9.790;2022-12-07T14:41:23;83.03;;;42.00;;
51298;SDS011;37382;45.192;9.790;2022-12-07T14:44:10;79.18;;;39.55;;
51298;SDS011;37382;45.192;9.790;2022-12-07T14:46:59;102.55;;;44.50;;
51298;SDS011;37382;45.192;9.790;2022-12-07T14:49:46;89.15;;;42.15;;
51298;SDS011;37382;45.192;9.790;2022-12-07T14:52:18;74.35;;;39.35;;
51298;SDS011;37382;45.192;9.790;2022-12-07T14:55:12;77.72;;;38.95;;
51298;SDS011;37382;45.192;9.790;2022-12-07T14:57:43;70.78;;;36.28;;
51298;SDS011;37382;45.192;9.790;2022-12-07T15:00:15;73.47;;;38.75;;
51298;SDS011;37382;45.192;9.790;2022-12-07T15:02:44;68.22;;;38.15;;
51298;SDS011;37382;45.192;9.790;2022-12-07T15:05:13;75.60;;;37.67;;
51298;SDS011;37382;45.192;9.790;2022-12-07T15:07:43;83.40;;;40.95;;
51298;SDS011;37382;45.192;9.790;2022-12-07T15:10:16;86.13;;;41.05;;
51298;SDS011;37382;45.192;9.790;2022-12-07T15:12:50;85.13;;;42.65;;
51298;SDS011;37382;45.192;9.790;2022-12-07T15:15:18;74.95;;;39.78;;
51298;SDS011;37382;45.192;9.790;2022-12-07T15:17:46;82.65;;;40.88;;
51298;SDS011;37382;45.192;9.790;2022-12-07T15:20:13;85.40;;;41.70;;
51298;SDS011;37382;45.192;9.790;2022-12-07T15:22:43;80.00;;;40.88;;
51298;SDS011;37382;45.192;9.790;2022-12-07T15:25:12;88.68;;;44.33;;
51298;SDS011;37382;45.192;9.790;2022-12-07T15:27:41;98.70;;;46.05;;
51298;SDS011;37382;45.192;9.790;2022-12-07T15:30:08;96.10;;;45.97;;
51298;SDS011;37382;45.192;9.790;2022-12-07T15:32:36;94.93;;;45.13;;
51298;SDS011;37382;45.192;9.790;2022-12-07T15:35:04;83.60;;;44.00;;
51298;SDS011;37382;45.192;9.790;2022-12-07T15:37:32;86.18;;;44.85;;
51298;SDS011;37382;45.192;9.790;2022-12-07T15:39:59;86.10;;;44.05;;
51298;SDS011;37382;45.192;9.790;2022-12-07T15:42:34;85.15;;;43.55;;
51298;SDS011;37382;45.192;9.790;2022-12-07T15:45:03;90.35;;;44.55;;
51298;SDS011;37382;45.192;9.790;2022-12-07T15:47:35;85.43;;;42.10;;
51298;SDS011;37382;45.192;9.790;2022-12-07T15:50:25;89.72;;;43.50;;
51298;SDS011;37382;45.192;9.790;2022-12-07T15:52:52;82.68;;;41.67;;
51298;SDS011;37382;45.192;9.790;2022-12-07T15:55:20;94.40;;;44.67;;
51298;SDS011;37382;45.192;9.790;2022-12-07T15:57:48;89.72;;;44.80;;
51298;SDS011;37382;45.192;9.790;2022-12-07T16:00:16;91.57;;;47.78;;
51298;SDS011;37382;45.192;9.790;2022-12-07T16:02:44;84.13;;;42.58;;
51298;SDS011;37382;45.192;9.790;2022-12-07T16:05:12;84.57;;;42.72;;
51298;SDS011;37382;45.192;9.790;2022-12-07T16:07:40;92.47;;;44.05;;
51298;SDS011;37382;45.192;9.790;2022-12-07T16:10:07;93.22;;;43.33;;
51298;SDS011;37382;45.192;9.790;2022-12-07T16:12:35;97.22;;;47.72;;
51298;SDS011;37382;45.192;9.790;2022-12-07T16:15:03;85.30;;;43.13;;
51298;SDS011;37382;45.192;9.790;2022-12-07T16:17:32;90.15;;;43.78;;
51298;SDS011;37382;45.192;9.790;2022-12-07T16:19:59;85.85;;;44.47;;
51298;SDS011;37382;45.192;9.790;2022-12-07T16:22:27;87.82;;;44.47;;
51298;SDS011;37382;45.192;9.790;2022-12-07T16:24:54;81.07;;;42.50;;
51298;SDS011;37382;45.192;9.790;2022-12-07T16:27:21;76.65;;;41.30;;
51298;SDS011;37382;45.192;9.790;2022-12-07T16:29:49;82.53;;;41.00;;
51298;SDS011;37382;45.192;9.790;2022-12-07T16:32:16;82.75;;;39.80;;
51298;SDS011;37382;45.192;9.790;2022-12-07T16:34:44;82.68;;;41.97;;
51298;SDS011;37382;45.192;9.790;2022-12-07T16:37:12;84.50;;;41.22;;
51298;SDS011;37382;45.192;9.790;2022-12-07T16:39:39;90.20;;;43.10;;
51298;SDS011;37382;45.192;9.790;2022-12-07T16:42:07;80.68;;;42.40;;
51298;SDS011;37382;45.192;9.790;2022-12-07T16:44:35;88.82;;;46.90;;
51298;SDS011;37382;45.192;9.790;2022-12-07T16:47:03;83.07;;;45.75;;
51298;SDS011;37382;45.192;9.790;2022-12-07T16:49:30;84.82;;;42.85;;
51298;SDS011;37382;45.192;9.790;2022-12-07T16:51:58;83.20;;;43.70;;
51298;SDS011;37382;45.192;9.790;2022-12-07T16:54:45;91.28;;;43.67;;
51298;SDS011;37382;45.192;9.790;2022-12-07T16:57:14;86.47;;;44.05;;
51298;SDS011;37382;45.192;9.790;2022-12-07T16:59:48;87.95;;;44.33;;
51298;SDS011;37382;45.192;9.790;2022-12-07T17:02:16;84.18;;;41.28;;
51298;SDS011;37382;45.192;9.790;2022-12-07T17:04:44;86.55;;;43.55;;
51298;SDS011;37382;45.192;9.790;2022-12-07T17:07:11;83.97;;;43.45;;